sensor_id;sensor_type;location;lat;lon;timestamp;P1;durP1;ratioP1;P2;durP2;ratioP2
69150;SDS011;56257;52.196;13.870;2022-07-22T00:00:51;7.85;;;5.97;;
69150;SDS011;56257;52.196;13.870;2022-07-22T00:03:17;9.00;;;6.00;;
69150;SDS011;56257;52.196;13.870;2022-07-22T00:05:45;8.40;;;5.90;;
69150;SDS011;56257;52.196;13.870;2022-07-22T00:08:11;8.05;;;6.00;;
69150;SDS011;56257;52.196;13.870;2022-07-22T00:10:38;8.48;;;6.07;;
69150;SDS011;56257;52.196;13.870;2022-07-22T00:13:05;7.68;;;6.07;;
69150;SDS011;56257;52.196;13.870;2022-07-22T00:15:32;7.22;;;5.80;;
69150;SDS011;56257;52.196;13.870;2022-07-22T00:17:59;7.53;;;5.80;;
69150;SDS011;56257;52.196;13.870;2022-07-22T00:20:25;8.10;;;5.72;;
69150;SDS011;56257;52.196;13.870;2022-07-22T00:22:52;9.63;;;6.72;;
69150;SDS011;56257;52.196;13.870;2022-07-22T00:25:19;9.15;;;6.32;;
69150;SDS011;56257;52.196;13.870;2022-07-22T00:27:46;8.57;;;6.80;;
69150;SDS011;56257;52.196;13.870;2022-07-22T00:30:13;8.47;;;7.13;;
69150;SDS011;56257;52.196;13.870;2022-07-22T00:32:39;8.90;;;6.70;;
69150;SDS011;56257;52.196;13.870;2022-07-22T00:35:06;10.30;;;7.32;;
69150;SDS011;56257;52.196;13.870;2022-07-22T00:37:33;10.63;;;7.13;;
69150;SDS011;56257;52.196;13.870;2022-07-22T00:40:00;8.45;;;6.60;;
69150;SDS011;56257;52.196;13.870;2022-07-22T00:42:27;10.07;;;6.80;;
69150;SDS011;56257;52.196;13.870;2022-07-22T00:44:54;8.73;;;6.95;;
69150;SDS011;56257;52.196;13.870;2022-07-22T00:47:22;8.95;;;6.80;;
69150;SDS011;56257;52.196;13.870;2022-07-22T00:49:49;8.40;;;6.70;;
69150;SDS011;56257;52.196;13.870;2022-07-22T00:52:16;10.13;;;6.63;;
69150;SDS011;56257;52.196;13.870;2022-07-22T00:54:44;8.38;;;6.35;;
69150;SDS011;56257;52.196;13.870;2022-07-22T00:57:11;9.50;;;6.18;;
69150;SDS011;56257;52.196;13.870;2022-07-22T00:59:38;9.23;;;7.40;;
69150;SDS011;56257;52.196;13.870;2022-07-22T01:02:04;9.70;;;6.53;;
69150;SDS011;56257;52.196;13.870;2022-07-22T01:04:31;8.05;;;6.53;;
69150;SDS011;56257;52.196;13.870;2022-07-22T01:06:58;8.77;;;6.32;;
69150;SDS011;56257;52.196;13.870;2022-07-22T01:09:25;8.48;;;6.28;;
69150;SDS011;56257;52.196;13.870;2022-07-22T01:11:52;8.50;;;6.18;;
69150;SDS011;56257;52.196;13.870;2022-07-22T01:14:18;8.67;;;6.20;;
69150;SDS011;56257;52.196;13.870;2022-07-22T01:16:45;8.02;;;6.28;;
69150;SDS011;56257;52.196;13.870;2022-07-22T01:19:15;8.32;;;6.78;;
69150;SDS011;56257;52.196;13.870;2022-07-22T01:21:41;7.63;;;6.18;;
69150;SDS011;56257;52.196;13.870;2022-07-22T01:24:08;8.73;;;5.85;;
69150;SDS011;56257;52.196;13.870;2022-07-22T01:26:35;8.37;;;6.13;;
69150;SDS011;56257;52.196;13.870;2022-07-22T01:29:02;8.18;;;5.93;;
69150;SDS011;56257;52.196;13.870;2022-07-22T01:31:29;9.20;;;6.60;;
69150;SDS011;56257;52.196;13.870;2022-07-22T01:33:56;7.68;;;6.13;;
69150;SDS011;56257;52.196;13.870;2022-07-22T01:36:23;7.55;;;5.60;;
69150;SDS011;56257;52.196;13.870;2022-07-22T01:38:49;7.63;;;5.73;;
69150;SDS011;56257;52.196;13.870;2022-07-22T01:41:16;7.85;;;5.97;;
69150;SDS011;56257;52.196;13.870;2022-07-22T01:43:43;9.15;;;6.10;;
69150;SDS011;56257;52.196;13.870;2022-07-22T01:46:10;7.68;;;6.18;;
69150;SDS011;56257;52.196;13.870;2022-07-22T01:48:37;7.75;;;5.82;;
69150;SDS011;56257;52.196;13.870;2022-07-22T01:51:03;7.90;;;5.73;;
69150;SDS011;56257;52.196;13.870;2022-07-22T01:53:30;8.88;;;5.90;;
69150;SDS011;56257;52.196;13.870;2022-07-22T01:55:57;8.07;;;6.40;;
69150;SDS011;56257;52.196;13.870;2022-07-22T01:58:24;9.48;;;5.95;;
69150;SDS011;56257;52.196;13.870;2022-07-22T02:00:51;8.68;;;6.00;;
69150;SDS011;56257;52.196;13.870;2022-07-22T02:03:18;8.00;;;5.23;;
69150;SDS011;56257;52.196;13.870;2022-07-22T02:05:45;8.02;;;5.75;;
69150;SDS011;56257;52.196;13.870;2022-07-22T02:08:11;8.20;;;6.63;;
69150;SDS011;56257;52.196;13.870;2022-07-22T02:10:40;8.63;;;6.28;;
69150;SDS011;56257;52.196;13.870;2022-07-22T02:13:07;7.65;;;5.70;;
69150;SDS011;56257;52.196;13.870;2022-07-22T02:15:34;7.30;;;5.47;;
69150;SDS011;56257;52.196;13.870;2022-07-22T02:18:08;8.15;;;5.65;;
69150;SDS011;56257;52.196;13.870;2022-07-22T02:20:36;8.20;;;6.07;;
69150;SDS011;56257;52.196;13.870;2022-07-22T02:23:04;7.28;;;5.60;;
69150;SDS011;56257;52.196;13.870;2022-07-22T02:25:31;7.82;;;5.90;;
69150;SDS011;56257;52.196;13.870;2022-07-22T02:27:58;7.77;;;6.10;;
69150;SDS011;56257;52.196;13.870;2022-07-22T02:30:24;7.93;;;5.85;;
69150;SDS011;56257;52.196;13.870;2022-07-22T02:32:51;8.73;;;5.85;;
69150;SDS011;56257;52.196;13.870;2022-07-22T02:35:18;7.25;;;5.72;;
69150;SDS011;56257;52.196;13.870;2022-07-22T02:37:44;9.55;;;6.20;;
69150;SDS011;56257;52.196;13.870;2022-07-22T02:40:12;8.40;;;5.90;;
69150;SDS011;56257;52.196;13.870;2022-07-22T02:42:39;9.95;;;6.15;;
69150;SDS011;56257;52.196;13.870;2022-07-22T02:45:05;8.88;;;6.10;;
69150;SDS011;56257;52.196;13.870;2022-07-22T02:47:33;9.02;;;6.50;;
69150;SDS011;56257;52.196;13.870;2022-07-22T02:49:59;8.32;;;5.90;;
69150;SDS011;56257;52.196;13.870;2022-07-22T02:52:26;7.43;;;5.83;;
69150;SDS011;56257;52.196;13.870;2022-07-22T02:54:53;8.15;;;5.85;;
69150;SDS011;56257;52.196;13.870;2022-07-22T02:57:19;7.53;;;5.68;;
69150;SDS011;56257;52.196;13.870;2022-07-22T02:59:46;7.93;;;5.80;;
69150;SDS011;56257;52.196;13.870;2022-07-22T03:02:13;7.82;;;5.95;;
69150;SDS011;56257;52.196;13.870;2022-07-22T03:04:39;8.40;;;5.53;;
69150;SDS011;56257;52.196;13.870;2022-07-22T03:07:06;8.98;;;6.05;;
69150;SDS011;56257;52.196;13.870;2022-07-22T03:09:33;8.75;;;5.95;;
69150;SDS011;56257;52.196;13.870;2022-07-22T03:12:00;8.90;;;5.78;;
69150;SDS011;56257;52.196;13.870;2022-07-22T03:14:26;8.20;;;6.07;;
69150;SDS011;56257;52.196;13.870;2022-07-22T03:16:53;8.03;;;6.17;;
69150;SDS011;56257;52.196;13.870;2022-07-22T03:19:20;7.75;;;6.32;;
69150;SDS011;56257;52.196;13.870;2022-07-22T03:21:46;7.95;;;5.95;;
69150;SDS011;56257;52.196;13.870;2022-07-22T03:24:13;8.07;;;5.93;;
69150;SDS011;56257;52.196;13.870;2022-07-22T03:26:40;7.35;;;5.72;;
69150;SDS011;56257;52.196;13.870;2022-07-22T03:29:06;8.73;;;6.00;;
69150;SDS011;56257;52.196;13.870;2022-07-22T03:31:33;7.88;;;6.18;;
69150;SDS011;56257;52.196;13.870;2022-07-22T03:34:00;7.75;;;5.82;;
69150;SDS011;56257;52.196;13.870;2022-07-22T03:36:27;8.50;;;5.60;;
69150;SDS011;56257;52.196;13.870;2022-07-22T03:38:55;8.10;;;6.18;;
69150;SDS011;56257;52.196;13.870;2022-07-22T03:41:23;8.73;;;5.80;;
69150;SDS011;56257;52.196;13.870;2022-07-22T03:43:50;7.40;;;5.63;;
69150;SDS011;56257;52.196;13.870;2022-07-22T03:46:16;7.32;;;5.55;;
69150;SDS011;56257;52.196;13.870;2022-07-22T03:48:43;7.25;;;5.53;;
69150;SDS011;56257;52.196;13.870;2022-07-22T03:51:10;7.22;;;5.40;;
69150;SDS011;56257;52.196;13.870;2022-07-22T03:53:36;8.60;;;5.57;;
69150;SDS011;56257;52.196;13.870;2022-07-22T03:56:03;7.30;;;5.80;;
69150;SDS011;56257;52.196;13.870;2022-07-22T03:58:30;7.38;;;5.32;;
69150;SDS011;56257;52.196;13.870;2022-07-22T04:00:57;7.15;;;5.35;;
69150;SDS011;56257;52.196;13.870;2022-07-22T04:03:24;7.55;;;5.80;;
69150;SDS011;56257;52.196;13.870;2022-07-22T04:05:50;7.30;;;5.47;;
69150;SDS011;56257;52.196;13.870;2022-07-22T04:08:17;7.53;;;5.38;;
69150;SDS011;56257;52.196;13.870;2022-07-22T04:10:44;8.27;;;5.68;;
69150;SDS011;56257;52.196;13.870;2022-07-22T04:13:11;7.22;;;5.18;;
69150;SDS011;56257;52.196;13.870;2022-07-22T04:15:38;7.00;;;4.93;;
69150;SDS011;56257;52.196;13.870;2022-07-22T04:18:04;8.57;;;5.40;;
69150;SDS011;56257;52.196;13.870;2022-07-22T04:20:31;6.65;;;5.13;;
69150;SDS011;56257;52.196;13.870;2022-07-22T04:22:57;7.85;;;5.60;;
69150;SDS011;56257;52.196;13.870;2022-07-22T04:25:24;7.85;;;5.07;;
69150;SDS011;56257;52.196;13.870;2022-07-22T04:27:51;7.47;;;5.38;;
69150;SDS011;56257;52.196;13.870;2022-07-22T04:30:18;7.00;;;4.97;;
69150;SDS011;56257;52.196;13.870;2022-07-22T04:32:45;7.50;;;5.45;;
69150;SDS011;56257;52.196;13.870;2022-07-22T04:35:12;7.20;;;5.70;;
69150;SDS011;56257;52.196;13.870;2022-07-22T04:37:38;7.90;;;5.50;;
69150;SDS011;56257;52.196;13.870;2022-07-22T04:40:05;7.20;;;5.40;;
69150;SDS011;56257;52.196;13.870;2022-07-22T04:42:32;7.37;;;5.00;;
69150;SDS011;56257;52.196;13.870;2022-07-22T04:44:59;6.45;;;5.18;;
69150;SDS011;56257;52.196;13.870;2022-07-22T04:47:25;6.78;;;4.85;;
69150;SDS011;56257;52.196;13.870;2022-07-22T04:49:52;7.68;;;4.93;;
69150;SDS011;56257;52.196;13.870;2022-07-22T04:52:19;6.80;;;4.63;;
69150;SDS011;56257;52.196;13.870;2022-07-22T04:54:46;7.63;;;4.90;;
69150;SDS011;56257;52.196;13.870;2022-07-22T04:57:13;6.55;;;5.00;;
69150;SDS011;56257;52.196;13.870;2022-07-22T04:59:40;7.00;;;5.03;;
69150;SDS011;56257;52.196;13.870;2022-07-22T05:02:07;7.50;;;4.63;;
69150;SDS011;56257;52.196;13.870;2022-07-22T05:04:34;7.53;;;5.35;;
69150;SDS011;56257;52.196;13.870;2022-07-22T05:07:00;6.60;;;4.87;;
69150;SDS011;56257;52.196;13.870;2022-07-22T05:09:29;6.97;;;4.90;;
69150;SDS011;56257;52.196;13.870;2022-07-22T05:11:57;7.13;;;5.10;;
69150;SDS011;56257;52.196;13.870;2022-07-22T05:14:23;6.60;;;4.65;;
69150;SDS011;56257;52.196;13.870;2022-07-22T05:16:50;10.68;;;5.07;;
69150;SDS011;56257;52.196;13.870;2022-07-22T05:19:17;7.30;;;4.93;;
69150;SDS011;56257;52.196;13.870;2022-07-22T05:21:44;7.00;;;4.80;;
69150;SDS011;56257;52.196;13.870;2022-07-22T05:24:10;7.60;;;5.35;;
69150;SDS011;56257;52.196;13.870;2022-07-22T05:26:37;6.47;;;4.97;;
69150;SDS011;56257;52.196;13.870;2022-07-22T05:29:04;8.20;;;5.85;;
69150;SDS011;56257;52.196;13.870;2022-07-22T05:31:30;7.03;;;5.07;;
69150;SDS011;56257;52.196;13.870;2022-07-22T05:33:57;9.30;;;5.63;;
69150;SDS011;56257;52.196;13.870;2022-07-22T05:36:24;6.93;;;5.35;;
69150;SDS011;56257;52.196;13.870;2022-07-22T05:38:51;8.15;;;5.07;;
69150;SDS011;56257;52.196;13.870;2022-07-22T05:41:17;7.20;;;4.90;;
69150;SDS011;56257;52.196;13.870;2022-07-22T05:43:44;7.30;;;5.17;;
69150;SDS011;56257;52.196;13.870;2022-07-22T05:46:11;6.72;;;4.95;;
69150;SDS011;56257;52.196;13.870;2022-07-22T05:48:38;7.38;;;5.30;;
69150;SDS011;56257;52.196;13.870;2022-07-22T05:51:10;7.47;;;4.93;;
69150;SDS011;56257;52.196;13.870;2022-07-22T05:53:37;6.03;;;4.63;;
69150;SDS011;56257;52.196;13.870;2022-07-22T05:56:05;6.60;;;4.77;;
69150;SDS011;56257;52.196;13.870;2022-07-22T05:58:32;7.20;;;4.65;;
69150;SDS011;56257;52.196;13.870;2022-07-22T06:00:59;6.78;;;5.10;;
69150;SDS011;56257;52.196;13.870;2022-07-22T06:03:25;7.55;;;5.57;;
69150;SDS011;56257;52.196;13.870;2022-07-22T06:05:52;7.32;;;4.75;;
69150;SDS011;56257;52.196;13.870;2022-07-22T06:08:19;6.67;;;5.03;;
69150;SDS011;56257;52.196;13.870;2022-07-22T06:10:45;6.60;;;4.95;;
69150;SDS011;56257;52.196;13.870;2022-07-22T06:13:12;8.48;;;4.90;;
69150;SDS011;56257;52.196;13.870;2022-07-22T06:15:39;7.07;;;5.13;;
69150;SDS011;56257;52.196;13.870;2022-07-22T06:18:05;6.55;;;4.97;;
69150;SDS011;56257;52.196;13.870;2022-07-22T06:20:32;6.23;;;4.43;;
69150;SDS011;56257;52.196;13.870;2022-07-22T06:22:59;6.97;;;5.07;;
69150;SDS011;56257;52.196;13.870;2022-07-22T06:25:26;6.40;;;5.03;;
69150;SDS011;56257;52.196;13.870;2022-07-22T06:28:10;7.22;;;4.82;;
69150;SDS011;56257;52.196;13.870;2022-07-22T06:30:37;6.75;;;4.82;;
69150;SDS011;56257;52.196;13.870;2022-07-22T06:33:05;6.90;;;4.97;;
69150;SDS011;56257;52.196;13.870;2022-07-22T06:35:32;6.00;;;4.55;;
69150;SDS011;56257;52.196;13.870;2022-07-22T06:37:58;7.18;;;4.88;;
69150;SDS011;56257;52.196;13.870;2022-07-22T06:40:35;7.72;;;4.60;;
69150;SDS011;56257;52.196;13.870;2022-07-22T06:43:02;6.70;;;5.22;;
69150;SDS011;56257;52.196;13.870;2022-07-22T06:45:29;6.37;;;4.57;;
69150;SDS011;56257;52.196;13.870;2022-07-22T06:47:56;7.93;;;4.88;;
69150;SDS011;56257;52.196;13.870;2022-07-22T06:50:24;7.80;;;4.72;;
69150;SDS011;56257;52.196;13.870;2022-07-22T06:52:52;6.95;;;4.75;;
69150;SDS011;56257;52.196;13.870;2022-07-22T06:55:19;6.30;;;4.50;;
69150;SDS011;56257;52.196;13.870;2022-07-22T06:57:45;8.70;;;5.03;;
69150;SDS011;56257;52.196;13.870;2022-07-22T07:00:12;6.68;;;4.75;;
69150;SDS011;56257;52.196;13.870;2022-07-22T07:02:39;7.22;;;4.97;;
69150;SDS011;56257;52.196;13.870;2022-07-22T07:05:06;7.10;;;5.28;;
69150;SDS011;56257;52.196;13.870;2022-07-22T07:07:45;7.85;;;5.10;;
69150;SDS011;56257;52.196;13.870;2022-07-22T07:10:12;6.60;;;4.97;;
69150;SDS011;56257;52.196;13.870;2022-07-22T07:12:41;7.28;;;4.88;;
69150;SDS011;56257;52.196;13.870;2022-07-22T07:15:08;8.50;;;5.45;;
69150;SDS011;56257;52.196;13.870;2022-07-22T07:17:53;7.45;;;4.75;;
69150;SDS011;56257;52.196;13.870;2022-07-22T07:20:21;7.55;;;4.88;;
69150;SDS011;56257;52.196;13.870;2022-07-22T07:22:47;7.67;;;5.00;;
69150;SDS011;56257;52.196;13.870;2022-07-22T07:25:14;6.75;;;5.00;;
69150;SDS011;56257;52.196;13.870;2022-07-22T07:27:50;6.63;;;5.05;;
69150;SDS011;56257;52.196;13.870;2022-07-22T07:30:20;7.03;;;4.95;;
69150;SDS011;56257;52.196;13.870;2022-07-22T07:32:47;6.20;;;4.88;;
69150;SDS011;56257;52.196;13.870;2022-07-22T07:35:14;6.40;;;4.30;;
69150;SDS011;56257;52.196;13.870;2022-07-22T07:37:41;7.75;;;4.90;;
69150;SDS011;56257;52.196;13.870;2022-07-22T07:40:07;7.50;;;4.70;;
69150;SDS011;56257;52.196;13.870;2022-07-22T07:42:34;7.03;;;5.38;;
69150;SDS011;56257;52.196;13.870;2022-07-22T07:45:10;8.40;;;4.65;;
69150;SDS011;56257;52.196;13.870;2022-07-22T07:47:38;6.80;;;4.50;;
69150;SDS011;56257;52.196;13.870;2022-07-22T07:50:05;6.10;;;4.50;;
69150;SDS011;56257;52.196;13.870;2022-07-22T07:52:41;7.10;;;4.85;;
69150;SDS011;56257;52.196;13.870;2022-07-22T07:55:16;7.05;;;4.30;;
69150;SDS011;56257;52.196;13.870;2022-07-22T07:57:45;6.95;;;4.72;;
69150;SDS011;56257;52.196;13.870;2022-07-22T08:00:17;6.77;;;4.60;;
69150;SDS011;56257;52.196;13.870;2022-07-22T08:02:47;5.82;;;3.97;;
69150;SDS011;56257;52.196;13.870;2022-07-22T08:05:14;6.22;;;4.50;;
69150;SDS011;56257;52.196;13.870;2022-07-22T08:07:42;7.55;;;5.00;;
69150;SDS011;56257;52.196;13.870;2022-07-22T08:10:09;6.55;;;4.85;;
69150;SDS011;56257;52.196;13.870;2022-07-22T08:12:56;5.80;;;4.30;;
69150;SDS011;56257;52.196;13.870;2022-07-22T08:15:25;6.35;;;4.38;;
69150;SDS011;56257;52.196;13.870;2022-07-22T08:17:53;5.70;;;4.25;;
69150;SDS011;56257;52.196;13.870;2022-07-22T08:20:21;7.68;;;4.32;;
69150;SDS011;56257;52.196;13.870;2022-07-22T08:22:48;6.57;;;4.18;;
69150;SDS011;56257;52.196;13.870;2022-07-22T08:25:16;6.00;;;4.13;;
69150;SDS011;56257;52.196;13.870;2022-07-22T08:27:43;6.10;;;4.50;;
69150;SDS011;56257;52.196;13.870;2022-07-22T08:30:10;7.05;;;4.20;;
69150;SDS011;56257;52.196;13.870;2022-07-22T08:32:37;6.28;;;4.05;;
69150;SDS011;56257;52.196;13.870;2022-07-22T08:35:04;5.50;;;4.03;;
69150;SDS011;56257;52.196;13.870;2022-07-22T08:37:31;5.90;;;3.83;;
69150;SDS011;56257;52.196;13.870;2022-07-22T08:39:58;5.47;;;3.97;;
69150;SDS011;56257;52.196;13.870;2022-07-22T08:42:25;7.78;;;3.85;;
69150;SDS011;56257;52.196;13.870;2022-07-22T08:44:52;6.68;;;3.60;;
69150;SDS011;56257;52.196;13.870;2022-07-22T08:47:26;5.30;;;3.60;;
69150;SDS011;56257;52.196;13.870;2022-07-22T08:50:07;5.47;;;3.70;;
69150;SDS011;56257;52.196;13.870;2022-07-22T08:52:34;6.40;;;3.47;;
69150;SDS011;56257;52.196;13.870;2022-07-22T08:55:04;6.03;;;3.63;;
69150;SDS011;56257;52.196;13.870;2022-07-22T08:57:32;6.05;;;4.00;;
69150;SDS011;56257;52.196;13.870;2022-07-22T08:59:59;5.35;;;3.40;;
69150;SDS011;56257;52.196;13.870;2022-07-22T09:02:27;6.33;;;3.80;;
69150;SDS011;56257;52.196;13.870;2022-07-22T09:04:59;6.38;;;3.20;;
69150;SDS011;56257;52.196;13.870;2022-07-22T09:07:48;4.95;;;3.55;;
69150;SDS011;56257;52.196;13.870;2022-07-22T09:10:18;4.72;;;3.30;;
69150;SDS011;56257;52.196;13.870;2022-07-22T09:12:52;4.55;;;3.05;;
69150;SDS011;56257;52.196;13.870;2022-07-22T09:15:29;5.00;;;3.10;;
69150;SDS011;56257;52.196;13.870;2022-07-22T09:17:57;5.47;;;3.40;;
69150;SDS011;56257;52.196;13.870;2022-07-22T09:20:31;6.95;;;3.45;;
69150;SDS011;56257;52.196;13.870;2022-07-22T09:22:59;5.25;;;3.38;;
69150;SDS011;56257;52.196;13.870;2022-07-22T09:25:33;5.72;;;3.33;;
69150;SDS011;56257;52.196;13.870;2022-07-22T09:30:49;6.10;;;3.15;;
69150;SDS011;56257;52.196;13.870;2022-07-22T09:33:19;5.05;;;3.33;;
69150;SDS011;56257;52.196;13.870;2022-07-22T09:35:49;4.80;;;3.13;;
69150;SDS011;56257;52.196;13.870;2022-07-22T09:38:17;4.97;;;3.50;;
69150;SDS011;56257;52.196;13.870;2022-07-22T09:40:48;6.30;;;3.50;;
69150;SDS011;56257;52.196;13.870;2022-07-22T09:43:16;5.38;;;3.20;;
69150;SDS011;56257;52.196;13.870;2022-07-22T09:48:23;4.72;;;3.40;;
69150;SDS011;56257;52.196;13.870;2022-07-22T09:50:51;6.15;;;3.50;;
69150;SDS011;56257;52.196;13.870;2022-07-22T09:53:27;4.93;;;3.27;;
69150;SDS011;56257;52.196;13.870;2022-07-22T09:55:59;4.53;;;3.10;;
69150;SDS011;56257;52.196;13.870;2022-07-22T09:58:28;6.38;;;3.60;;
69150;SDS011;56257;52.196;13.870;2022-07-22T10:01:00;4.50;;;2.97;;
69150;SDS011;56257;52.196;13.870;2022-07-22T10:03:30;5.97;;;3.42;;
69150;SDS011;56257;52.196;13.870;2022-07-22T10:06:04;4.57;;;3.20;;
69150;SDS011;56257;52.196;13.870;2022-07-22T10:08:32;5.05;;;3.42;;
69150;SDS011;56257;52.196;13.870;2022-07-22T10:11:01;4.80;;;3.10;;
69150;SDS011;56257;52.196;13.870;2022-07-22T10:13:29;5.03;;;3.10;;
69150;SDS011;56257;52.196;13.870;2022-07-22T10:15:57;5.93;;;3.35;;
69150;SDS011;56257;52.196;13.870;2022-07-22T10:18:24;4.90;;;2.87;;
69150;SDS011;56257;52.196;13.870;2022-07-22T10:21:04;4.97;;;2.80;;
69150;SDS011;56257;52.196;13.870;2022-07-22T10:23:32;4.60;;;3.10;;
69150;SDS011;56257;52.196;13.870;2022-07-22T10:26:00;4.65;;;2.88;;
69150;SDS011;56257;52.196;13.870;2022-07-22T10:28:32;4.65;;;3.03;;
69150;SDS011;56257;52.196;13.870;2022-07-22T10:33:48;4.38;;;2.72;;
69150;SDS011;56257;52.196;13.870;2022-07-22T10:36:28;3.90;;;2.45;;
69150;SDS011;56257;52.196;13.870;2022-07-22T10:39:10;5.13;;;3.30;;
69150;SDS011;56257;52.196;13.870;2022-07-22T10:41:41;5.18;;;3.28;;
69150;SDS011;56257;52.196;13.870;2022-07-22T10:53:02;4.30;;;2.80;;
69150;SDS011;56257;52.196;13.870;2022-07-22T10:55:59;4.20;;;2.90;;
69150;SDS011;56257;52.196;13.870;2022-07-22T11:01:36;4.22;;;2.90;;
69150;SDS011;56257;52.196;13.870;2022-07-22T11:04:09;5.28;;;3.38;;
69150;SDS011;56257;52.196;13.870;2022-07-22T11:06:43;4.90;;;2.88;;
69150;SDS011;56257;52.196;13.870;2022-07-22T11:09:12;4.07;;;2.42;;
69150;SDS011;56257;52.196;13.870;2022-07-22T11:11:46;5.43;;;2.83;;
69150;SDS011;56257;52.196;13.870;2022-07-22T11:16:51;4.22;;;2.97;;
69150;SDS011;56257;52.196;13.870;2022-07-22T11:19:19;5.03;;;2.90;;
69150;SDS011;56257;52.196;13.870;2022-07-22T11:21:51;4.47;;;3.00;;
69150;SDS011;56257;52.196;13.870;2022-07-22T11:24:19;5.67;;;2.50;;
69150;SDS011;56257;52.196;13.870;2022-07-22T11:26:47;5.90;;;2.90;;
69150;SDS011;56257;52.196;13.870;2022-07-22T11:29:17;5.22;;;3.05;;
69150;SDS011;56257;52.196;13.870;2022-07-22T11:31:55;5.32;;;2.80;;
69150;SDS011;56257;52.196;13.870;2022-07-22T11:34:24;5.10;;;2.67;;
69150;SDS011;56257;52.196;13.870;2022-07-22T11:36:51;4.63;;;2.80;;
69150;SDS011;56257;52.196;13.870;2022-07-22T11:39:20;4.00;;;2.60;;
69150;SDS011;56257;52.196;13.870;2022-07-22T11:41:49;4.30;;;3.00;;
69150;SDS011;56257;52.196;13.870;2022-07-22T11:44:23;4.28;;;2.90;;
69150;SDS011;56257;52.196;13.870;2022-07-22T11:46:51;4.65;;;2.50;;
69150;SDS011;56257;52.196;13.870;2022-07-22T11:49:19;14.37;;;3.20;;
69150;SDS011;56257;52.196;13.870;2022-07-22T11:51:47;8.18;;;2.95;;
69150;SDS011;56257;52.196;13.870;2022-07-22T11:54:14;6.82;;;3.08;;
69150;SDS011;56257;52.196;13.870;2022-07-22T11:56:41;6.28;;;2.65;;
69150;SDS011;56257;52.196;13.870;2022-07-22T11:59:07;5.72;;;3.50;;
69150;SDS011;56257;52.196;13.870;2022-07-22T12:01:39;5.33;;;3.00;;
69150;SDS011;56257;52.196;13.870;2022-07-22T12:04:10;3.70;;;2.10;;
69150;SDS011;56257;52.196;13.870;2022-07-22T12:06:41;4.35;;;2.50;;
69150;SDS011;56257;52.196;13.870;2022-07-22T12:11:46;5.00;;;3.22;;
69150;SDS011;56257;52.196;13.870;2022-07-22T12:14:15;4.50;;;2.77;;
69150;SDS011;56257;52.196;13.870;2022-07-22T12:16:44;4.72;;;2.70;;
69150;SDS011;56257;52.196;13.870;2022-07-22T12:19:20;6.65;;;3.33;;
69150;SDS011;56257;52.196;13.870;2022-07-22T12:21:53;9.00;;;3.50;;
69150;SDS011;56257;52.196;13.870;2022-07-22T12:32:08;5.57;;;2.97;;
69150;SDS011;56257;52.196;13.870;2022-07-22T12:42:24;4.65;;;2.80;;
69150;SDS011;56257;52.196;13.870;2022-07-22T12:44:53;4.53;;;3.10;;
69150;SDS011;56257;52.196;13.870;2022-07-22T12:47:46;5.05;;;3.10;;
69150;SDS011;56257;52.196;13.870;2022-07-22T12:50:31;4.43;;;2.90;;
69150;SDS011;56257;52.196;13.870;2022-07-22T12:58:14;6.25;;;3.42;;
69150;SDS011;56257;52.196;13.870;2022-07-22T13:00:44;4.57;;;2.90;;
69150;SDS011;56257;52.196;13.870;2022-07-22T13:03:12;6.43;;;3.33;;
69150;SDS011;56257;52.196;13.870;2022-07-22T13:05:39;5.40;;;2.10;;
69150;SDS011;56257;52.196;13.870;2022-07-22T13:08:07;4.70;;;3.13;;
69150;SDS011;56257;52.196;13.870;2022-07-22T13:10:35;6.20;;;3.08;;
69150;SDS011;56257;52.196;13.870;2022-07-22T13:13:04;4.88;;;2.53;;
69150;SDS011;56257;52.196;13.870;2022-07-22T13:15:31;5.10;;;2.83;;
69150;SDS011;56257;52.196;13.870;2022-07-22T13:17:58;4.60;;;2.57;;
69150;SDS011;56257;52.196;13.870;2022-07-22T13:20:25;5.45;;;2.78;;
69150;SDS011;56257;52.196;13.870;2022-07-22T13:22:51;4.50;;;2.78;;
69150;SDS011;56257;52.196;13.870;2022-07-22T13:25:18;4.38;;;2.75;;
69150;SDS011;56257;52.196;13.870;2022-07-22T13:27:45;5.10;;;2.90;;
69150;SDS011;56257;52.196;13.870;2022-07-22T13:30:12;4.73;;;2.67;;
69150;SDS011;56257;52.196;13.870;2022-07-22T13:32:39;4.75;;;2.70;;
69150;SDS011;56257;52.196;13.870;2022-07-22T13:35:14;13.25;;;3.20;;
69150;SDS011;56257;52.196;13.870;2022-07-22T13:37:41;5.40;;;2.78;;
69150;SDS011;56257;52.196;13.870;2022-07-22T13:40:09;4.63;;;2.95;;
69150;SDS011;56257;52.196;13.870;2022-07-22T13:42:37;4.90;;;2.23;;
69150;SDS011;56257;52.196;13.870;2022-07-22T13:45:04;4.13;;;2.80;;
69150;SDS011;56257;52.196;13.870;2022-07-22T13:47:45;4.05;;;2.88;;
69150;SDS011;56257;52.196;13.870;2022-07-22T13:50:12;7.63;;;3.20;;
69150;SDS011;56257;52.196;13.870;2022-07-22T13:52:39;6.32;;;3.22;;
69150;SDS011;56257;52.196;13.870;2022-07-22T13:55:06;7.10;;;2.97;;
69150;SDS011;56257;52.196;13.870;2022-07-22T13:57:34;4.47;;;3.30;;
69150;SDS011;56257;52.196;13.870;2022-07-22T14:00:02;4.85;;;3.22;;
69150;SDS011;56257;52.196;13.870;2022-07-22T14:02:36;5.63;;;3.42;;
69150;SDS011;56257;52.196;13.870;2022-07-22T14:05:03;6.65;;;2.63;;
69150;SDS011;56257;52.196;13.870;2022-07-22T14:07:30;4.93;;;2.80;;
69150;SDS011;56257;52.196;13.870;2022-07-22T14:09:57;6.03;;;2.80;;
69150;SDS011;56257;52.196;13.870;2022-07-22T14:12:24;5.30;;;3.22;;
69150;SDS011;56257;52.196;13.870;2022-07-22T14:14:51;5.45;;;2.95;;
69150;SDS011;56257;52.196;13.870;2022-07-22T14:17:17;5.05;;;2.88;;
69150;SDS011;56257;52.196;13.870;2022-07-22T14:19:50;5.67;;;2.90;;
69150;SDS011;56257;52.196;13.870;2022-07-22T14:22:23;5.28;;;2.85;;
69150;SDS011;56257;52.196;13.870;2022-07-22T14:24:53;6.30;;;3.85;;
69150;SDS011;56257;52.196;13.870;2022-07-22T14:27:20;8.90;;;2.97;;
69150;SDS011;56257;52.196;13.870;2022-07-22T14:29:46;8.52;;;3.28;;
69150;SDS011;56257;52.196;13.870;2022-07-22T14:32:13;5.03;;;3.13;;
69150;SDS011;56257;52.196;13.870;2022-07-22T14:34:40;6.53;;;3.17;;
69150;SDS011;56257;52.196;13.870;2022-07-22T14:37:07;5.72;;;2.97;;
69150;SDS011;56257;52.196;13.870;2022-07-22T14:39:35;6.05;;;3.08;;
69150;SDS011;56257;52.196;13.870;2022-07-22T14:42:01;6.38;;;3.08;;
69150;SDS011;56257;52.196;13.870;2022-07-22T14:44:28;5.20;;;2.77;;
69150;SDS011;56257;52.196;13.870;2022-07-22T14:46:55;8.82;;;2.90;;
69150;SDS011;56257;52.196;13.870;2022-07-22T14:49:21;8.68;;;3.00;;
69150;SDS011;56257;52.196;13.870;2022-07-22T14:51:48;8.93;;;2.95;;
69150;SDS011;56257;52.196;13.870;2022-07-22T14:54:15;7.55;;;3.10;;
69150;SDS011;56257;52.196;13.870;2022-07-22T14:56:41;6.37;;;2.90;;
69150;SDS011;56257;52.196;13.870;2022-07-22T14:59:08;8.38;;;2.90;;
69150;SDS011;56257;52.196;13.870;2022-07-22T15:01:34;9.02;;;3.42;;
69150;SDS011;56257;52.196;13.870;2022-07-22T15:04:01;9.27;;;3.10;;
69150;SDS011;56257;52.196;13.870;2022-07-22T15:06:29;7.57;;;3.10;;
69150;SDS011;56257;52.196;13.870;2022-07-22T15:08:55;7.97;;;2.97;;
69150;SDS011;56257;52.196;13.870;2022-07-22T15:11:22;7.72;;;3.20;;
69150;SDS011;56257;52.196;13.870;2022-07-22T15:13:49;6.07;;;3.25;;
69150;SDS011;56257;52.196;13.870;2022-07-22T15:16:15;7.63;;;2.90;;
69150;SDS011;56257;52.196;13.870;2022-07-22T15:18:42;12.77;;;3.25;;
69150;SDS011;56257;52.196;13.870;2022-07-22T15:21:09;9.67;;;3.10;;
69150;SDS011;56257;52.196;13.870;2022-07-22T15:23:37;13.23;;;3.42;;
69150;SDS011;56257;52.196;13.870;2022-07-22T15:26:03;8.68;;;3.03;;